sensor_id;sensor_type;location;lat;lon;timestamp;temperature;humidity
7846;DHT22;3968;51.424;6.788;2022-11-24T00:00:50;8.60;99.90
7846;DHT22;3968;51.424;6.788;2022-11-24T00:03:15;8.40;99.90
7846;DHT22;3968;51.424;6.788;2022-11-24T00:05:41;8.60;99.90
7846;DHT22;3968;51.424;6.788;2022-11-24T00:08:07;8.60;99.90
7846;DHT22;3968;51.424;6.788;2022-11-24T00:10:32;8.60;99.90
7846;DHT22;3968;51.424;6.788;2022-11-24T00:12:58;8.60;99.90
7846;DHT22;3968;51.424;6.788;2022-11-24T00:15:24;8.60;99.90
7846;DHT22;3968;51.424;6.788;2022-11-24T00:17:49;8.60;99.90
7846;DHT22;3968;51.424;6.788;2022-11-24T00:20:15;8.60;99.90
7846;DHT22;3968;51.424;6.788;2022-11-24T00:22:41;8.60;99.90
7846;DHT22;3968;51.424;6.788;2022-11-24T00:25:07;8.60;99.90
7846;DHT22;3968;51.424;6.788;2022-11-24T00:27:32;8.60;99.90
7846;DHT22;3968;51.424;6.788;2022-11-24T00:29:58;9.00;99.90
7846;DHT22;3968;51.424;6.788;2022-11-24T00:32:27;8.40;99.90
7846;DHT22;3968;51.424;6.788;2022-11-24T00:34:53;8.60;99.90
7846;DHT22;3968;51.424;6.788;2022-11-24T00:37:19;8.60;99.90
7846;DHT22;3968;51.424;6.788;2022-11-24T00:39:44;8.50;99.90
7846;DHT22;3968;51.424;6.788;2022-11-24T00:42:10;8.50;99.90
7846;DHT22;3968;51.424;6.788;2022-11-24T00:44:36;8.50;99.90
7846;DHT22;3968;51.424;6.788;2022-11-24T00:47:01;8.50;99.90
7846;DHT22;3968;51.424;6.788;2022-11-24T00:49:27;8.50;99.90
7846;DHT22;3968;51.424;6.788;2022-11-24T00:51:52;8.50;99.90
7846;DHT22;3968;51.424;6.788;2022-11-24T00:54:18;8.50;99.90
7846;DHT22;3968;51.424;6.788;2022-11-24T00:56:44;8.50;99.90
7846;DHT22;3968;51.424;6.788;2022-11-24T01:01:36;8.50;99.90
7846;DHT22;3968;51.424;6.788;2022-11-24T01:04:02;8.50;99.90
7846;DHT22;3968;51.424;6.788;2022-11-24T01:06:29;8.50;99.90
7846;DHT22;3968;51.424;6.788;2022-11-24T01:08:56;8.40;99.90
7846;DHT22;3968;51.424;6.788;2022-11-24T01:13:55;8.50;99.90
7846;DHT22;3968;51.424;6.788;2022-11-24T01:16:26;8.80;99.90
7846;DHT22;3968;51.424;6.788;2022-11-24T01:21:19;8.60;99.90
7846;DHT22;3968;51.424;6.788;2022-11-24T01:26:14;8.40;99.90
7846;DHT22;3968;51.424;6.788;2022-11-24T01:28:40;8.40;99.90
7846;DHT22;3968;51.424;6.788;2022-11-24T01:31:07;8.40;99.90
7846;DHT22;3968;51.424;6.788;2022-11-24T01:33:33;8.60;99.90
7846;DHT22;3968;51.424;6.788;2022-11-24T01:36:00;8.50;99.90
7846;DHT22;3968;51.424;6.788;2022-11-24T01:38:26;8.50;99.90
7846;DHT22;3968;51.424;6.788;2022-11-24T01:41:09;8.50;99.90
7846;DHT22;3968;51.424;6.788;2022-11-24T01:43:35;8.50;99.90
7846;DHT22;3968;51.424;6.788;2022-11-24T01:46:13;8.50;99.90
7846;DHT22;3968;51.424;6.788;2022-11-24T01:48:50;8.60;99.90
7846;DHT22;3968;51.424;6.788;2022-11-24T01:51:21;8.60;99.90
7846;DHT22;3968;51.424;6.788;2022-11-24T01:53:53;8.60;99.90
7846;DHT22;3968;51.424;6.788;2022-11-24T01:56:22;8.60;99.90
7846;DHT22;3968;51.424;6.788;2022-11-24T01:58:49;8.60;99.90
7846;DHT22;3968;51.424;6.788;2022-11-24T02:01:15;8.50;99.90
7846;DHT22;3968;51.424;6.788;2022-11-24T02:03:42;8.70;99.90
7846;DHT22;3968;51.424;6.788;2022-11-24T02:06:20;8.70;99.90
7846;DHT22;3968;51.424;6.788;2022-11-24T02:08:57;8.70;99.90
7846;DHT22;3968;51.424;6.788;2022-11-24T02:11:27;8.70;99.90
7846;DHT22;3968;51.424;6.788;2022-11-24T02:13:54;8.70;99.90
7846;DHT22;3968;51.424;6.788;2022-11-24T02:16:21;8.70;99.90
7846;DHT22;3968;51.424;6.788;2022-11-24T02:18:47;8.60;99.90
7846;DHT22;3968;51.424;6.788;2022-11-24T02:21:14;8.60;99.90
7846;DHT22;3968;51.424;6.788;2022-11-24T02:24:01;8.60;99.90
7846;DHT22;3968;51.424;6.788;2022-11-24T02:26:41;8.60;99.90
7846;DHT22;3968;51.424;6.788;2022-11-24T02:29:09;8.60;99.90
7846;DHT22;3968;51.424;6.788;2022-11-24T02:31:36;8.60;99.90
7846;DHT22;3968;51.424;6.788;2022-11-24T02:34:01;8.40;99.90
7846;DHT22;3968;51.424;6.788;2022-11-24T02:36:27;8.60;99.90
7846;DHT22;3968;51.424;6.788;2022-11-24T02:38:53;8.60;99.90
7846;DHT22;3968;51.424;6.788;2022-11-24T02:41:20;8.50;99.90
7846;DHT22;3968;51.424;6.788;2022-11-24T02:43:54;8.60;99.90
7846;DHT22;3968;51.424;6.788;2022-11-24T02:46:21;8.50;99.90
7846;DHT22;3968;51.424;6.788;2022-11-24T02:48:46;8.60;99.90
7846;DHT22;3968;51.424;6.788;2022-11-24T02:51:12;8.40;99.90
7846;DHT22;3968;51.424;6.788;2022-11-24T02:53:38;8.60;99.90
7846;DHT22;3968;51.424;6.788;2022-11-24T02:56:04;8.60;99.90
7846;DHT22;3968;51.424;6.788;2022-11-24T02:58:30;8.90;99.90
7846;DHT22;3968;51.424;6.788;2022-11-24T03:00:55;8.70;99.90
7846;DHT22;3968;51.424;6.788;2022-11-24T03:03:22;8.70;99.90
7846;DHT22;3968;51.424;6.788;2022-11-24T03:05:48;8.70;99.90
7846;DHT22;3968;51.424;6.788;2022-11-24T03:08:14;8.80;99.90
7846;DHT22;3968;51.424;6.788;2022-11-24T03:10:40;8.80;99.90
7846;DHT22;3968;51.424;6.788;2022-11-24T03:13:06;8.80;99.90
7846;DHT22;3968;51.424;6.788;2022-11-24T03:15:31;8.80;99.90
7846;DHT22;3968;51.424;6.788;2022-11-24T03:17:57;8.80;99.90
7846;DHT22;3968;51.424;6.788;2022-11-24T03:20:23;8.90;99.90
7846;DHT22;3968;51.424;6.788;2022-11-24T03:22:49;8.90;99.90
7846;DHT22;3968;51.424;6.788;2022-11-24T03:25:15;8.80;99.90
7846;DHT22;3968;51.424;6.788;2022-11-24T03:27:41;8.90;99.90
7846;DHT22;3968;51.424;6.788;2022-11-24T03:30:07;8.80;99.90
7846;DHT22;3968;51.424;6.788;2022-11-24T03:32:32;8.80;99.90
7846;DHT22;3968;51.424;6.788;2022-11-24T03:34:58;8.80;99.90
7846;DHT22;3968;51.424;6.788;2022-11-24T03:37:24;8.80;99.90
7846;DHT22;3968;51.424;6.788;2022-11-24T03:39:49;8.70;99.90
7846;DHT22;3968;51.424;6.788;2022-11-24T03:42:15;8.70;99.90
7846;DHT22;3968;51.424;6.788;2022-11-24T03:44:41;8.70;99.90
7846;DHT22;3968;51.424;6.788;2022-11-24T03:47:06;8.70;99.90
7846;DHT22;3968;51.424;6.788;2022-11-24T03:49:32;8.80;99.90
7846;DHT22;3968;51.424;6.788;2022-11-24T03:51:58;8.70;99.90
7846;DHT22;3968;51.424;6.788;2022-11-24T03:54:23;8.80;99.90
7846;DHT22;3968;51.424;6.788;2022-11-24T03:56:49;8.80;99.90
7846;DHT22;3968;51.424;6.788;2022-11-24T03:59:15;9.00;99.90
7846;DHT22;3968;51.424;6.788;2022-11-24T04:01:41;8.90;99.90
7846;DHT22;3968;51.424;6.788;2022-11-24T04:04:09;8.90;99.90
7846;DHT22;3968;51.424;6.788;2022-11-24T04:06:35;8.90;99.90
7846;DHT22;3968;51.424;6.788;2022-11-24T04:09:01;8.90;99.90
7846;DHT22;3968;51.424;6.788;2022-11-24T04:11:27;9.00;99.90
7846;DHT22;3968;51.424;6.788;2022-11-24T04:14:11;9.00;99.90
7846;DHT22;3968;51.424;6.788;2022-11-24T04:16:37;9.00;99.90
7846;DHT22;3968;51.424;6.788;2022-11-24T04:19:02;9.00;99.90
7846;DHT22;3968;51.424;6.788;2022-11-24T04:21:28;9.00;99.90
7846;DHT22;3968;51.424;6.788;2022-11-24T04:23:53;9.10;99.90
7846;DHT22;3968;51.424;6.788;2022-11-24T04:26:19;9.10;99.90
7846;DHT22;3968;51.424;6.788;2022-11-24T04:31:11;9.10;99.90
7846;DHT22;3968;51.424;6.788;2022-11-24T04:33:36;9.10;99.90
7846;DHT22;3968;51.424;6.788;2022-11-24T04:36:02;9.20;99.90
7846;DHT22;3968;51.424;6.788;2022-11-24T04:38:28;9.20;99.90
7846;DHT22;3968;51.424;6.788;2022-11-24T04:40:53;9.20;99.90
7846;DHT22;3968;51.424;6.788;2022-11-24T04:43:19;9.30;99.90
7846;DHT22;3968;51.424;6.788;2022-11-24T04:45:46;9.30;99.90
7846;DHT22;3968;51.424;6.788;2022-11-24T04:53:04;9.30;99.90
7846;DHT22;3968;51.424;6.788;2022-11-24T04:55:29;9.30;99.90
7846;DHT22;3968;51.424;6.788;2022-11-24T04:57:55;9.40;99.90
7846;DHT22;3968;51.424;6.788;2022-11-24T05:00:21;9.40;99.90
7846;DHT22;3968;51.424;6.788;2022-11-24T05:02:46;9.40;99.90
7846;DHT22;3968;51.424;6.788;2022-11-24T05:05:12;9.40;99.90
7846;DHT22;3968;51.424;6.788;2022-11-24T05:07:38;9.50;99.90
7846;DHT22;3968;51.424;6.788;2022-11-24T05:10:04;9.40;99.90
7846;DHT22;3968;51.424;6.788;2022-11-24T05:12:56;9.40;99.90
7846;DHT22;3968;51.424;6.788;2022-11-24T05:15:23;9.40;99.90
7846;DHT22;3968;51.424;6.788;2022-11-24T05:17:49;9.40;99.90
7846;DHT22;3968;51.424;6.788;2022-11-24T05:20:15;9.40;99.90
7846;DHT22;3968;51.424;6.788;2022-11-24T05:22:40;9.40;99.90
7846;DHT22;3968;51.424;6.788;2022-11-24T05:25:06;9.20;99.90
7846;DHT22;3968;51.424;6.788;2022-11-24T05:27:32;9.40;99.90
7846;DHT22;3968;51.424;6.788;2022-11-24T05:29:57;9.40;99.90
7846;DHT22;3968;51.424;6.788;2022-11-24T05:32:23;9.40;99.90
7846;DHT22;3968;51.424;6.788;2022-11-24T05:34:49;9.40;99.90
7846;DHT22;3968;51.424;6.788;2022-11-24T05:37:15;9.40;99.90
7846;DHT22;3968;51.424;6.788;2022-11-24T05:39:41;9.40;99.90
7846;DHT22;3968;51.424;6.788;2022-11-24T05:42:06;9.30;99.90
7846;DHT22;3968;51.424;6.788;2022-11-24T05:44:52;9.40;99.90
7846;DHT22;3968;51.424;6.788;2022-11-24T05:47:18;9.40;99.90
7846;DHT22;3968;51.424;6.788;2022-11-24T05:49:43;9.50;99.90
7846;DHT22;3968;51.424;6.788;2022-11-24T05:52:09;9.30;99.90
7846;DHT22;3968;51.424;6.788;2022-11-24T05:54:35;9.30;99.90
7846;DHT22;3968;51.424;6.788;2022-11-24T05:57:01;9.60;99.90
7846;DHT22;3968;51.424;6.788;2022-11-24T05:59:26;9.50;99.90
7846;DHT22;3968;51.424;6.788;2022-11-24T06:04:18;9.40;99.90
7846;DHT22;3968;51.424;6.788;2022-11-24T06:06:45;9.30;99.90
7846;DHT22;3968;51.424;6.788;2022-11-24T06:09:11;9.30;99.90
7846;DHT22;3968;51.424;6.788;2022-11-24T06:11:37;9.30;99.90
7846;DHT22;3968;51.424;6.788;2022-11-24T06:14:03;9.30;99.90
7846;DHT22;3968;51.424;6.788;2022-11-24T06:16:28;9.30;99.90
7846;DHT22;3968;51.424;6.788;2022-11-24T06:18:54;9.40;99.90
7846;DHT22;3968;51.424;6.788;2022-11-24T06:21:19;9.40;99.90
7846;DHT22;3968;51.424;6.788;2022-11-24T06:23:48;9.40;99.90
7846;DHT22;3968;51.424;6.788;2022-11-24T06:26:14;9.40;99.90
7846;DHT22;3968;51.424;6.788;2022-11-24T06:28:39;9.30;99.90
7846;DHT22;3968;51.424;6.788;2022-11-24T06:31:05;9.40;99.90
7846;DHT22;3968;51.424;6.788;2022-11-24T06:33:32;9.30;99.90
7846;DHT22;3968;51.424;6.788;2022-11-24T06:36:06;9.30;99.90
7846;DHT22;3968;51.424;6.788;2022-11-24T06:38:34;9.30;99.90
7846;DHT22;3968;51.424;6.788;2022-11-24T06:41:01;9.30;99.90
7846;DHT22;3968;51.424;6.788;2022-11-24T06:43:28;9.30;99.90
7846;DHT22;3968;51.424;6.788;2022-11-24T06:45:55;9.30;99.90
7846;DHT22;3968;51.424;6.788;2022-11-24T06:48:21;9.30;99.90
7846;DHT22;3968;51.424;6.788;2022-11-24T06:50:46;9.30;99.90
7846;DHT22;3968;51.424;6.788;2022-11-24T06:53:12;9.30;99.90
7846;DHT22;3968;51.424;6.788;2022-11-24T06:55:39;9.40;99.90
7846;DHT22;3968;51.424;6.788;2022-11-24T07:00:31;9.30;99.90
7846;DHT22;3968;51.424;6.788;2022-11-24T07:03:00;9.30;99.90
7846;DHT22;3968;51.424;6.788;2022-11-24T07:05:26;9.30;99.90
7846;DHT22;3968;51.424;6.788;2022-11-24T07:07:52;9.40;99.90
7846;DHT22;3968;51.424;6.788;2022-11-24T07:10:17;9.30;99.90
7846;DHT22;3968;51.424;6.788;2022-11-24T07:12:43;9.30;99.90
7846;DHT22;3968;51.424;6.788;2022-11-24T07:15:09;9.30;99.90
7846;DHT22;3968;51.424;6.788;2022-11-24T07:17:36;9.50;99.90
7846;DHT22;3968;51.424;6.788;2022-11-24T07:20:06;9.30;99.90
7846;DHT22;3968;51.424;6.788;2022-11-24T07:22:32;9.40;99.90
7846;DHT22;3968;51.424;6.788;2022-11-24T07:25:01;9.40;99.90
7846;DHT22;3968;51.424;6.788;2022-11-24T07:27:29;9.40;99.90
7846;DHT22;3968;51.424;6.788;2022-11-24T07:29:55;9.40;99.90
7846;DHT22;3968;51.424;6.788;2022-11-24T07:32:20;9.40;99.90
7846;DHT22;3968;51.424;6.788;2022-11-24T07:34:46;9.40;99.90
7846;DHT22;3968;51.424;6.788;2022-11-24T07:37:11;9.50;99.90
7846;DHT22;3968;51.424;6.788;2022-11-24T07:39:37;9.40;99.90
7846;DHT22;3968;51.424;6.788;2022-11-24T07:42:03;9.50;99.90
7846;DHT22;3968;51.424;6.788;2022-11-24T07:44:29;9.50;99.90
7846;DHT22;3968;51.424;6.788;2022-11-24T07:46:55;9.50;99.90
7846;DHT22;3968;51.424;6.788;2022-11-24T07:49:21;9.50;99.90
7846;DHT22;3968;51.424;6.788;2022-11-24T07:54:13;9.50;99.90
7846;DHT22;3968;51.424;6.788;2022-11-24T07:56:38;9.50;99.90
7846;DHT22;3968;51.424;6.788;2022-11-24T08:01:30;9.40;99.90
7846;DHT22;3968;51.424;6.788;2022-11-24T08:03:55;9.60;99.90
7846;DHT22;3968;51.424;6.788;2022-11-24T08:06:21;9.60;99.90
7846;DHT22;3968;51.424;6.788;2022-11-24T08:08:47;9.50;99.90
7846;DHT22;3968;51.424;6.788;2022-11-24T08:11:15;9.50;99.90
7846;DHT22;3968;51.424;6.788;2022-11-24T08:13:41;9.60;99.90
7846;DHT22;3968;51.424;6.788;2022-11-24T08:16:09;9.60;99.90
7846;DHT22;3968;51.424;6.788;2022-11-24T08:18:36;9.60;99.90
7846;DHT22;3968;51.424;6.788;2022-11-24T08:21:02;9.70;99.90
7846;DHT22;3968;51.424;6.788;2022-11-24T08:23:28;9.70;99.90
7846;DHT22;3968;51.424;6.788;2022-11-24T08:25:55;9.70;99.90
7846;DHT22;3968;51.424;6.788;2022-11-24T08:28:22;9.60;99.90
7846;DHT22;3968;51.424;6.788;2022-11-24T08:30:47;9.70;99.90
7846;DHT22;3968;51.424;6.788;2022-11-24T08:33:13;9.70;99.90
7846;DHT22;3968;51.424;6.788;2022-11-24T08:35:39;9.70;99.90
7846;DHT22;3968;51.424;6.788;2022-11-24T08:38:05;9.70;99.90
7846;DHT22;3968;51.424;6.788;2022-11-24T08:40:31;9.60;99.90
7846;DHT22;3968;51.424;6.788;2022-11-24T08:42:58;9.80;99.90
7846;DHT22;3968;51.424;6.788;2022-11-24T08:47:55;9.90;99.90
7846;DHT22;3968;51.424;6.788;2022-11-24T08:50:22;9.70;99.90
7846;DHT22;3968;51.424;6.788;2022-11-24T08:52:47;9.70;99.90
7846;DHT22;3968;51.424;6.788;2022-11-24T08:55:13;9.70;99.90
7846;DHT22;3968;51.424;6.788;2022-11-24T08:57:39;9.80;99.90
7846;DHT22;3968;51.424;6.788;2022-11-24T09:00:05;9.80;99.90
7846;DHT22;3968;51.424;6.788;2022-11-24T09:02:31;9.80;99.90
7846;DHT22;3968;51.424;6.788;2022-11-24T09:04:56;9.80;99.90
7846;DHT22;3968;51.424;6.788;2022-11-24T09:07:22;9.80;99.90
7846;DHT22;3968;51.424;6.788;2022-11-24T09:09:48;9.80;99.90
7846;DHT22;3968;51.424;6.788;2022-11-24T09:12:13;9.90;99.90
7846;DHT22;3968;51.424;6.788;2022-11-24T09:14:39;9.90;99.90
7846;DHT22;3968;51.424;6.788;2022-11-24T09:17:05;9.90;99.90
7846;DHT22;3968;51.424;6.788;2022-11-24T09:19:30;9.90;99.90
7846;DHT22;3968;51.424;6.788;2022-11-24T09:21:56;10.00;99.90
7846;DHT22;3968;51.424;6.788;2022-11-24T09:24:22;10.00;99.90
7846;DHT22;3968;51.424;6.788;2022-11-24T09:26:47;10.10;99.90
7846;DHT22;3968;51.424;6.788;2022-11-24T09:29:13;10.10;99.90
7846;DHT22;3968;51.424;6.788;2022-11-24T09:31:38;10.10;99.90
7846;DHT22;3968;51.424;6.788;2022-11-24T09:34:06;10.10;99.90
7846;DHT22;3968;51.424;6.788;2022-11-24T09:36:33;10.10;99.90
7846;DHT22;3968;51.424;6.788;2022-11-24T09:38:59;10.30;99.90
7846;DHT22;3968;51.424;6.788;2022-11-24T09:41:41;10.10;99.90
7846;DHT22;3968;51.424;6.788;2022-11-24T09:44:50;10.10;99.90
7846;DHT22;3968;51.424;6.788;2022-11-24T09:50:27;10.20;99.90
7846;DHT22;3968;51.424;6.788;2022-11-24T09:58:31;10.50;99.90
7846;DHT22;3968;51.424;6.788;2022-11-24T10:00:58;10.30;99.90
7846;DHT22;3968;51.424;6.788;2022-11-24T10:03:42;10.40;99.90
7846;DHT22;3968;51.424;6.788;2022-11-24T10:11:54;10.40;99.90
7846;DHT22;3968;51.424;6.788;2022-11-24T10:14:40;10.40;99.90
7846;DHT22;3968;51.424;6.788;2022-11-24T10:20:09;10.40;99.90
7846;DHT22;3968;51.424;6.788;2022-11-24T10:25:24;10.40;99.90
7846;DHT22;3968;51.424;6.788;2022-11-24T10:28:01;10.50;99.90
7846;DHT22;3968;51.424;6.788;2022-11-24T10:30:27;10.40;99.90
7846;DHT22;3968;51.424;6.788;2022-11-24T10:33:25;10.50;99.90
7846;DHT22;3968;51.424;6.788;2022-11-24T10:35:54;10.60;99.90
7846;DHT22;3968;51.424;6.788;2022-11-24T10:40:56;10.70;99.90
7846;DHT22;3968;51.424;6.788;2022-11-24T10:43:25;10.80;99.90
7846;DHT22;3968;51.424;6.788;2022-11-24T10:45:52;10.80;99.90
7846;DHT22;3968;51.424;6.788;2022-11-24T10:48:23;10.90;99.90
7846;DHT22;3968;51.424;6.788;2022-11-24T10:50:52;10.90;99.90
7846;DHT22;3968;51.424;6.788;2022-11-24T10:53:31;10.90;99.90
7846;DHT22;3968;51.424;6.788;2022-11-24T10:56:00;10.90;99.90
7846;DHT22;3968;51.424;6.788;2022-11-24T10:58:27;10.90;99.90
7846;DHT22;3968;51.424;6.788;2022-11-24T11:00:56;10.90;99.90
7846;DHT22;3968;51.424;6.788;2022-11-24T11:03:25;10.90;99.90
7846;DHT22;3968;51.424;6.788;2022-11-24T11:08:35;10.90;99.90
7846;DHT22;3968;51.424;6.788;2022-11-24T11:11:15;10.90;99.90
7846;DHT22;3968;51.424;6.788;2022-11-24T11:13:52;10.90;99.90
7846;DHT22;3968;51.424;6.788;2022-11-24T11:16:28;10.90;99.90
7846;DHT22;3968;51.424;6.788;2022-11-24T11:18:56;10.90;99.90
7846;DHT22;3968;51.424;6.788;2022-11-24T11:21:36;10.80;99.90
7846;DHT22;3968;51.424;6.788;2022-11-24T11:24:13;10.90;99.90
7846;DHT22;3968;51.424;6.788;2022-11-24T11:26:40;10.80;99.90
7846;DHT22;3968;51.424;6.788;2022-11-24T11:31:36;10.90;99.90
7846;DHT22;3968;51.424;6.788;2022-11-24T11:34:11;10.90;99.90
7846;DHT22;3968;51.424;6.788;2022-11-24T11:36:45;10.90;99.90
7846;DHT22;3968;51.424;6.788;2022-11-24T11:39:25;10.90;99.90
7846;DHT22;3968;51.424;6.788;2022-11-24T11:42:18;11.00;99.90
7846;DHT22;3968;51.424;6.788;2022-11-24T11:44:54;11.00;99.90
7846;DHT22;3968;51.424;6.788;2022-11-24T11:47:32;11.40;99.90
7846;DHT22;3968;51.424;6.788;2022-11-24T11:50:09;11.20;99.90
7846;DHT22;3968;51.424;6.788;2022-11-24T11:52:42;11.00;99.90
7846;DHT22;3968;51.424;6.788;2022-11-24T11:55:25;11.00;99.90
7846;DHT22;3968;51.424;6.788;2022-11-24T12:00:47;10.90;99.90
7846;DHT22;3968;51.424;6.788;2022-11-24T12:03:28;11.00;99.90
7846;DHT22;3968;51.424;6.788;2022-11-24T12:06:16;10.70;99.90
7846;DHT22;3968;51.424;6.788;2022-11-24T12:11:33;10.90;99.90
7846;DHT22;3968;51.424;6.788;2022-11-24T12:16:55;10.90;99.90
7846;DHT22;3968;51.424;6.788;2022-11-24T12:22:14;10.80;99.90
7846;DHT22;3968;51.424;6.788;2022-11-24T12:24:49;10.90;99.90
7846;DHT22;3968;51.424;6.788;2022-11-24T12:30:17;10.90;99.90
7846;DHT22;3968;51.424;6.788;2022-11-24T12:35:34;11.00;99.90
7846;DHT22;3968;51.424;6.788;2022-11-24T12:43:40;11.00;99.90
7846;DHT22;3968;51.424;6.788;2022-11-24T12:51:46;11.10;99.90
7846;DHT22;3968;51.424;6.788;2022-11-24T12:54:16;11.10;99.90
7846;DHT22;3968;51.424;6.788;2022-11-24T13:02:18;11.20;99.90
7846;DHT22;3968;51.424;6.788;2022-11-24T13:05:18;11.10;99.90
7846;DHT22;3968;51.424;6.788;2022-11-24T13:15:18;11.10;99.90
7846;DHT22;3968;51.424;6.788;2022-11-24T13:17:44;11.10;99.90
7846;DHT22;3968;51.424;6.788;2022-11-24T13:20:31;11.10;99.90
7846;DHT22;3968;51.424;6.788;2022-11-24T13:23:02;11.10;99.90
7846;DHT22;3968;51.424;6.788;2022-11-24T13:25:30;11.00;99.90
7846;DHT22;3968;51.424;6.788;2022-11-24T13:27:57;10.90;99.90
7846;DHT22;3968;51.424;6.788;2022-11-24T13:35:38;11.00;99.90
7846;DHT22;3968;51.424;6.788;2022-11-24T13:39:16;11.00;99.90
7846;DHT22;3968;51.424;6.788;2022-11-24T13:49:23;11.00;99.90
7846;DHT22;3968;51.424;6.788;2022-11-24T13:57:41;11.20;99.90
7846;DHT22;3968;51.424;6.788;2022-11-24T14:00:24;11.20;99.90
7846;DHT22;3968;51.424;6.788;2022-11-24T14:03:00;11.20;99.90
7846;DHT22;3968;51.424;6.788;2022-11-24T14:05:33;11.20;99.90
7846;DHT22;3968;51.424;6.788;2022-11-24T14:08:00;11.50;99.90
7846;DHT22;3968;51.424;6.788;2022-11-24T14:10:32;11.30;99.90
7846;DHT22;3968;51.424;6.788;2022-11-24T14:13:27;11.30;99.90
7846;DHT22;3968;51.424;6.788;2022-11-24T14:18:42;11.30;99.90
7846;DHT22;3968;51.424;6.788;2022-11-24T14:21:24;11.20;99.90
7846;DHT22;3968;51.424;6.788;2022-11-24T14:26:34;11.20;99.90
7846;DHT22;3968;51.424;6.788;2022-11-24T14:29:20;11.20;99.90
7846;DHT22;3968;51.424;6.788;2022-11-24T14:31:57;11.10;99.90
7846;DHT22;3968;51.424;6.788;2022-11-24T14:34:25;11.10;99.90
7846;DHT22;3968;51.424;6.788;2022-11-24T14:36:51;11.10;99.90
7846;DHT22;3968;51.424;6.788;2022-11-24T14:39:23;11.10;99.90
7846;DHT22;3968;51.424;6.788;2022-11-24T14:42:14;11.10;99.90
7846;DHT22;3968;51.424;6.788;2022-11-24T14:47:14;11.00;99.90
7846;DHT22;3968;51.424;6.788;2022-11-24T14:49:42;10.90;99.90
7846;DHT22;3968;51.424;6.788;2022-11-24T14:52:12;10.90;99.90
7846;DHT22;3968;51.424;6.788;2022-11-24T14:54:56;10.90;99.90
7846;DHT22;3968;51.424;6.788;2022-11-24T14:57:33;10.80;99.90
7846;DHT22;3968;51.424;6.788;2022-11-24T15:02:46;10.70;99.90
7846;DHT22;3968;51.424;6.788;2022-11-24T15:05:15;10.70;99.90
7846;DHT22;3968;51.424;6.788;2022-11-24T15:07:43;10.70;99.90
7846;DHT22;3968;51.424;6.788;2022-11-24T15:12:54;10.60;99.90
7846;DHT22;3968;51.424;6.788;2022-11-24T15:15:32;10.60;99.90
7846;DHT22;3968;51.424;6.788;2022-11-24T15:18:00;10.50;99.90
7846;DHT22;3968;51.424;6.788;2022-11-24T15:23:25;10.40;99.90
7846;DHT22;3968;51.424;6.788;2022-11-24T15:25:52;10.40;99.90
7846;DHT22;3968;51.424;6.788;2022-11-24T15:28:19;10.40;99.90
7846;DHT22;3968;51.424;6.788;2022-11-24T15:30:53;10.30;99.90
7846;DHT22;3968;51.424;6.788;2022-11-24T15:33:20;10.30;99.90
7846;DHT22;3968;51.424;6.788;2022-11-24T15:35:46;10.30;99.90
7846;DHT22;3968;51.424;6.788;2022-11-24T15:38:12;10.30;99.90
7846;DHT22;3968;51.424;6.788;2022-11-24T15:40:39;10.20;99.90
7846;DHT22;3968;51.424;6.788;2022-11-24T15:43:36;10.10;99.90
7846;DHT22;3968;51.424;6.788;2022-11-24T15:46:04;10.20;99.90
7846;DHT22;3968;51.424;6.788;2022-11-24T15:48:30;10.10;99.90
7846;DHT22;3968;51.424;6.788;2022-11-24T15:50:57;10.10;99.90
7846;DHT22;3968;51.424;6.788;2022-11-24T15:53:33;10.00;99.90
7846;DHT22;3968;51.424;6.788;2022-11-24T15:56:02;10.00;99.90
7846;DHT22;3968;51.424;6.788;2022-11-24T15:58:28;10.00;99.90
7846;DHT22;3968;51.424;6.788;2022-11-24T16:00:53;9.70;99.90
7846;DHT22;3968;51.424;6.788;2022-11-24T16:03:19;9.90;99.90
7846;DHT22;3968;51.424;6.788;2022-11-24T16:08:13;9.90;99.90
7846;DHT22;3968;51.424;6.788;2022-11-24T16:10:39;9.80;99.90
7846;DHT22;3968;51.424;6.788;2022-11-24T16:13:05;9.80;99.90
7846;DHT22;3968;51.424;6.788;2022-11-24T16:15:31;9.80;99.90
7846;DHT22;3968;51.424;6.788;2022-11-24T16:17:56;9.60;99.90
7846;DHT22;3968;51.424;6.788;2022-11-24T16:20:22;9.70;99.90
7846;DHT22;3968;51.424;6.788;2022-11-24T16:22:48;9.70;99.90
7846;DHT22;3968;51.424;6.788;2022-11-24T16:25:13;9.80;99.90
7846;DHT22;3968;51.424;6.788;2022-11-24T16:27:39;9.60;99.90
7846;DHT22;3968;51.424;6.788;2022-11-24T16:30:06;9.60;99.90
7846;DHT22;3968;51.424;6.788;2022-11-24T16:32:32;9.60;99.90
7846;DHT22;3968;51.424;6.788;2022-11-24T16:34:58;9.50;99.90
7846;DHT22;3968;51.424;6.788;2022-11-24T16:37:24;9.50;99.90
7846;DHT22;3968;51.424;6.788;2022-11-24T16:39:49;9.40;99.90
7846;DHT22;3968;51.424;6.788;2022-11-24T16:42:15;9.50;99.90
7846;DHT22;3968;51.424;6.788;2022-11-24T16:44:41;9.40;99.90
7846;DHT22;3968;51.424;6.788;2022-11-24T16:47:07;9.40;99.90
7846;DHT22;3968;51.424;6.788;2022-11-24T16:49:33;9.40;99.90
7846;DHT22;3968;51.424;6.788;2022-11-24T16:51:59;9.30;99.90
7846;DHT22;3968;51.424;6.788;2022-11-24T16:54:24;9.30;99.90
7846;DHT22;3968;51.424;6.788;2022-11-24T16:56:50;9.20;99.90
7846;DHT22;3968;51.424;6.788;2022-11-24T16:59:16;9.20;99.90
7846;DHT22;3968;51.424;6.788;2022-11-24T17:01:42;9.20;99.90
7846;DHT22;3968;51.424;6.788;2022-11-24T17:04:11;9.00;99.90
7846;DHT22;3968;51.424;6.788;2022-11-24T17:06:36;9.20;99.90
7846;DHT22;3968;51.424;6.788;2022-11-24T17:09:02;9.10;99.90
7846;DHT22;3968;51.424;6.788;2022-11-24T17:11:28;9.10;99.90
7846;DHT22;3968;51.424;6.788;2022-11-24T17:13:55;9.10;99.90
7846;DHT22;3968;51.424;6.788;2022-11-24T17:16:24;9.10;99.90
7846;DHT22;3968;51.424;6.788;2022-11-24T17:18:50;8.70;99.90
7846;DHT22;3968;51.424;6.788;2022-11-24T17:21:21;9.10;99.90
7846;DHT22;3968;51.424;6.788;2022-11-24T17:23:55;9.10;99.90
7846;DHT22;3968;51.424;6.788;2022-11-24T17:26:21;9.00;99.90
7846;DHT22;3968;51.424;6.788;2022-11-24T17:28:47;9.00;99.90
7846;DHT22;3968;51.424;6.788;2022-11-24T17:31:20;9.00;99.90
7846;DHT22;3968;51.424;6.788;2022-11-24T17:33:47;9.00;99.90
7846;DHT22;3968;51.424;6.788;2022-11-24T17:36:12;9.00;99.90
7846;DHT22;3968;51.424;6.788;2022-11-24T17:38:38;9.00;99.90
7846;DHT22;3968;51.424;6.788;2022-11-24T17:41:04;9.00;99.90
7846;DHT22;3968;51.424;6.788;2022-11-24T17:43:30;9.00;99.90
7846;DHT22;3968;51.424;6.788;2022-11-24T17:45:58;9.00;99.90
7846;DHT22;3968;51.424;6.788;2022-11-24T17:48:24;8.90;99.90
7846;DHT22;3968;51.424;6.788;2022-11-24T17:50:59;9.00;99.90
7846;DHT22;3968;51.424;6.788;2022-11-24T17:53:25;8.90;99.90
7846;DHT22;3968;51.424;6.788;2022-11-24T17:55:51;8.90;99.90
7846;DHT22;3968;51.424;6.788;2022-11-24T17:58:16;8.90;99.90
7846;DHT22;3968;51.424;6.788;2022-11-24T18:00:42;8.90;99.90
7846;DHT22;3968;51.424;6.788;2022-11-24T18:03:08;8.90;99.90
7846;DHT22;3968;51.424;6.788;2022-11-24T18:05:36;8.90;99.90
7846;DHT22;3968;51.424;6.788;2022-11-24T18:08:03;8.90;99.90
7846;DHT22;3968;51.424;6.788;2022-11-24T18:10:30;8.90;99.90
7846;DHT22;3968;51.424;6.788;2022-11-24T18:12:56;9.00;99.90
7846;DHT22;3968;51.424;6.788;2022-11-24T18:15:23;9.00;99.90
7846;DHT22;3968;51.424;6.788;2022-11-24T18:17:50;9.00;99.90
7846;DHT22;3968;51.424;6.788;2022-11-24T18:20:16;9.00;99.90
7846;DHT22;3968;51.424;6.788;2022-11-24T18:22:42;9.00;99.90
7846;DHT22;3968;51.424;6.788;2022-11-24T18:25:08;8.90;99.90
7846;DHT22;3968;51.424;6.788;2022-11-24T18:27:33;9.00;99.90
7846;DHT22;3968;51.424;6.788;2022-11-24T18:29:59;9.00;99.90
7846;DHT22;3968;51.424;6.788;2022-11-24T18:32:25;8.90;99.90
7846;DHT22;3968;51.424;6.788;2022-11-24T18:34:50;9.00;99.90
7846;DHT22;3968;51.424;6.788;2022-11-24T18:37:16;9.10;99.90